sensor_id;sensor_type;location;lat;lon;timestamp;pressure;altitude;pressure_sealevel;temperature;humidity
54465;BME280;40374;49.480;20.016;2022-11-15T00:01:54;62409.59;;;-145.97;100.00
54465;BME280;40374;49.480;20.016;2022-11-15T00:04:40;62409.59;;;-145.97;100.00
54465;BME280;40374;49.480;20.016;2022-11-15T00:07:27;62409.59;;;-145.97;100.00
54465;BME280;40374;49.480;20.016;2022-11-15T00:10:33;62409.59;;;-145.97;100.00
54465;BME280;40374;49.480;20.016;2022-11-15T00:13:18;62409.59;;;-145.97;100.00
54465;BME280;40374;49.480;20.016;2022-11-15T00:16:05;62409.59;;;-145.97;100.00
54465;BME280;40374;49.480;20.016;2022-11-15T00:18:51;62409.59;;;-145.97;100.00
54465;BME280;40374;49.480;20.016;2022-11-15T00:21:37;62409.59;;;-145.97;100.00
54465;BME280;40374;49.480;20.016;2022-11-15T00:24:23;62409.59;;;-145.97;100.00
54465;BME280;40374;49.480;20.016;2022-11-15T00:27:09;62409.59;;;-145.97;100.00
54465;BME280;40374;49.480;20.016;2022-11-15T00:29:55;62409.59;;;-145.97;100.00
54465;BME280;40374;49.480;20.016;2022-11-15T00:32:41;62409.59;;;-145.97;100.00
54465;BME280;40374;49.480;20.016;2022-11-15T00:35:28;62409.59;;;-145.97;100.00
54465;BME280;40374;49.480;20.016;2022-11-15T00:38:14;62409.59;;;-145.97;100.00
54465;BME280;40374;49.480;20.016;2022-11-15T00:41:01;62409.59;;;-145.97;100.00
54465;BME280;40374;49.480;20.016;2022-11-15T00:43:54;62409.59;;;-145.97;100.00
54465;BME280;40374;49.480;20.016;2022-11-15T00:46:40;62409.59;;;-145.97;100.00
54465;BME280;40374;49.480;20.016;2022-11-15T00:49:25;62409.59;;;-145.97;100.00
54465;BME280;40374;49.480;20.016;2022-11-15T00:52:12;62409.59;;;-145.97;100.00
54465;BME280;40374;49.480;20.016;2022-11-15T00:54:57;62409.59;;;-145.97;100.00
54465;BME280;40374;49.480;20.016;2022-11-15T00:57:44;62409.59;;;-145.97;100.00
54465;BME280;40374;49.480;20.016;2022-11-15T01:00:30;62409.59;;;-145.97;100.00
54465;BME280;40374;49.480;20.016;2022-11-15T01:03:20;62409.59;;;-145.97;100.00
54465;BME280;40374;49.480;20.016;2022-11-15T01:06:06;62409.59;;;-145.97;100.00
54465;BME280;40374;49.480;20.016;2022-11-15T01:08:52;62409.59;;;-145.97;100.00
54465;BME280;40374;49.480;20.016;2022-11-15T01:11:38;62409.59;;;-145.97;100.00
54465;BME280;40374;49.480;20.016;2022-11-15T01:14:25;62409.59;;;-145.97;100.00
54465;BME280;40374;49.480;20.016;2022-11-15T01:17:11;62409.59;;;-145.97;100.00
54465;BME280;40374;49.480;20.016;2022-11-15T01:19:57;62409.59;;;-145.97;100.00
54465;BME280;40374;49.480;20.016;2022-11-15T01:22:43;62409.59;;;-145.97;100.00
54465;BME280;40374;49.480;20.016;2022-11-15T01:25:29;62409.59;;;-145.97;100.00
54465;BME280;40374;49.480;20.016;2022-11-15T01:28:15;62409.59;;;-145.97;100.00
54465;BME280;40374;49.480;20.016;2022-11-15T01:31:03;62409.59;;;-145.97;100.00
54465;BME280;40374;49.480;20.016;2022-11-15T01:33:50;62409.59;;;-145.97;100.00
54465;BME280;40374;49.480;20.016;2022-11-15T01:36:36;62409.59;;;-145.97;100.00
54465;BME280;40374;49.480;20.016;2022-11-15T01:39:22;62409.59;;;-145.97;100.00
54465;BME280;40374;49.480;20.016;2022-11-15T01:42:12;62409.59;;;-145.97;100.00
54465;BME280;40374;49.480;20.016;2022-11-15T01:44:58;62409.59;;;-145.97;100.00
54465;BME280;40374;49.480;20.016;2022-11-15T01:47:49;62409.59;;;-145.97;100.00
54465;BME280;40374;49.480;20.016;2022-11-15T01:50:37;62409.59;;;-145.97;100.00
54465;BME280;40374;49.480;20.016;2022-11-15T01:53:24;62409.59;;;-145.97;100.00
54465;BME280;40374;49.480;20.016;2022-11-15T01:56:14;62409.59;;;-145.97;100.00
54465;BME280;40374;49.480;20.016;2022-11-15T01:59:04;62409.59;;;-145.97;100.00
54465;BME280;40374;49.480;20.016;2022-11-15T02:01:52;62409.59;;;-145.97;100.00
54465;BME280;40374;49.480;20.016;2022-11-15T02:04:47;62409.59;;;-145.97;100.00
54465;BME280;40374;49.480;20.016;2022-11-15T02:07:35;62409.59;;;-145.97;100.00
54465;BME280;40374;49.480;20.016;2022-11-15T02:10:23;62409.59;;;-145.97;100.00
54465;BME280;40374;49.480;20.016;2022-11-15T02:13:10;62409.59;;;-145.97;100.00
54465;BME280;40374;49.480;20.016;2022-11-15T02:16:03;62409.59;;;-145.97;100.00
54465;BME280;40374;49.480;20.016;2022-11-15T02:30:55;62409.59;;;-145.97;100.00
54465;BME280;40374;49.480;20.016;2022-11-15T02:40:11;62409.59;;;-145.97;100.00
54465;BME280;40374;49.480;20.016;2022-11-15T02:43:07;62409.59;;;-145.97;100.00
54465;BME280;40374;49.480;20.016;2022-11-15T02:46:14;62409.59;;;-145.97;100.00
54465;BME280;40374;49.480;20.016;2022-11-15T02:49:02;62409.59;;;-145.97;100.00
54465;BME280;40374;49.480;20.016;2022-11-15T02:51:49;62409.59;;;-145.97;100.00
54465;BME280;40374;49.480;20.016;2022-11-15T02:54:36;62409.59;;;-145.97;100.00
54465;BME280;40374;49.480;20.016;2022-11-15T03:00:23;62409.59;;;-145.97;100.00
54465;BME280;40374;49.480;20.016;2022-11-15T03:09:34;62409.59;;;-145.97;100.00
54465;BME280;40374;49.480;20.016;2022-11-15T03:12:43;62409.59;;;-145.97;100.00
54465;BME280;40374;49.480;20.016;2022-11-15T03:15:44;62409.59;;;-145.97;100.00
54465;BME280;40374;49.480;20.016;2022-11-15T03:18:38;62409.59;;;-145.97;100.00
54465;BME280;40374;49.480;20.016;2022-11-15T03:21:30;62409.59;;;-145.97;100.00
54465;BME280;40374;49.480;20.016;2022-11-15T03:24:19;62409.59;;;-145.97;100.00
54465;BME280;40374;49.480;20.016;2022-11-15T03:27:14;62409.59;;;-145.97;100.00
54465;BME280;40374;49.480;20.016;2022-11-15T03:30:05;62409.59;;;-145.97;100.00
54465;BME280;40374;49.480;20.016;2022-11-15T03:32:58;62409.59;;;-145.97;100.00
54465;BME280;40374;49.480;20.016;2022-11-15T03:35:47;62409.59;;;-145.97;100.00
54465;BME280;40374;49.480;20.016;2022-11-15T03:38:35;62409.59;;;-145.97;100.00
54465;BME280;40374;49.480;20.016;2022-11-15T03:44:45;62409.59;;;-145.97;100.00
54465;BME280;40374;49.480;20.016;2022-11-15T03:47:36;62409.59;;;-145.97;100.00
54465;BME280;40374;49.480;20.016;2022-11-15T03:50:24;62409.59;;;-145.97;100.00
54465;BME280;40374;49.480;20.016;2022-11-15T03:53:12;62409.59;;;-145.97;100.00
54465;BME280;40374;49.480;20.016;2022-11-15T03:55:58;62409.59;;;-145.97;100.00
54465;BME280;40374;49.480;20.016;2022-11-15T03:58:44;62409.59;;;-145.97;100.00
54465;BME280;40374;49.480;20.016;2022-11-15T04:01:30;62409.59;;;-145.97;100.00
54465;BME280;40374;49.480;20.016;2022-11-15T04:04:16;62409.59;;;-145.97;100.00
54465;BME280;40374;49.480;20.016;2022-11-15T04:07:03;62409.59;;;-145.97;100.00
54465;BME280;40374;49.480;20.016;2022-11-15T04:09:48;62409.59;;;-145.97;100.00
54465;BME280;40374;49.480;20.016;2022-11-15T04:12:51;62409.59;;;-145.97;100.00
54465;BME280;40374;49.480;20.016;2022-11-15T04:15:37;62409.59;;;-145.97;100.00
54465;BME280;40374;49.480;20.016;2022-11-15T04:18:23;62409.59;;;-145.97;100.00
54465;BME280;40374;49.480;20.016;2022-11-15T04:21:09;62409.59;;;-145.97;100.00
54465;BME280;40374;49.480;20.016;2022-11-15T04:24:14;62409.59;;;-145.97;100.00
54465;BME280;40374;49.480;20.016;2022-11-15T04:27:00;62409.59;;;-145.97;100.00
54465;BME280;40374;49.480;20.016;2022-11-15T04:29:46;62409.59;;;-145.97;100.00
54465;BME280;40374;49.480;20.016;2022-11-15T04:32:32;62409.59;;;-145.97;100.00
54465;BME280;40374;49.480;20.016;2022-11-15T04:35:19;62409.59;;;-145.97;100.00
54465;BME280;40374;49.480;20.016;2022-11-15T04:38:06;62409.59;;;-145.97;100.00
54465;BME280;40374;49.480;20.016;2022-11-15T04:40:53;62409.59;;;-145.97;100.00
54465;BME280;40374;49.480;20.016;2022-11-15T04:43:39;62409.59;;;-145.97;100.00
54465;BME280;40374;49.480;20.016;2022-11-15T04:46:25;62409.59;;;-145.97;100.00
54465;BME280;40374;49.480;20.016;2022-11-15T04:49:11;62409.59;;;-145.97;100.00
54465;BME280;40374;49.480;20.016;2022-11-15T04:51:57;62409.59;;;-145.97;100.00
54465;BME280;40374;49.480;20.016;2022-11-15T04:54:43;62409.59;;;-145.97;100.00
54465;BME280;40374;49.480;20.016;2022-11-15T04:57:30;62409.59;;;-145.97;100.00
54465;BME280;40374;49.480;20.016;2022-11-15T05:00:16;62409.59;;;-145.97;100.00
54465;BME280;40374;49.480;20.016;2022-11-15T05:03:03;62409.59;;;-145.97;100.00
54465;BME280;40374;49.480;20.016;2022-11-15T05:06:08;62409.59;;;-145.97;100.00
54465;BME280;40374;49.480;20.016;2022-11-15T05:08:54;62409.59;;;-145.97;100.00
54465;BME280;40374;49.480;20.016;2022-11-15T05:11:40;62409.59;;;-145.97;100.00
54465;BME280;40374;49.480;20.016;2022-11-15T05:14:27;62409.59;;;-145.97;100.00
54465;BME280;40374;49.480;20.016;2022-11-15T05:17:13;62409.59;;;-145.97;100.00
54465;BME280;40374;49.480;20.016;2022-11-15T05:19:59;62409.59;;;-145.97;100.00
54465;BME280;40374;49.480;20.016;2022-11-15T05:22:45;62409.59;;;-145.97;100.00
54465;BME280;40374;49.480;20.016;2022-11-15T05:25:32;62409.59;;;-145.97;100.00
54465;BME280;40374;49.480;20.016;2022-11-15T05:28:18;62409.59;;;-145.97;100.00
54465;BME280;40374;49.480;20.016;2022-11-15T05:33:51;62409.59;;;-145.97;100.00
54465;BME280;40374;49.480;20.016;2022-11-15T05:36:41;62409.59;;;-145.97;100.00
54465;BME280;40374;49.480;20.016;2022-11-15T05:39:27;62409.59;;;-145.97;100.00
54465;BME280;40374;49.480;20.016;2022-11-15T05:42:15;62409.59;;;-145.97;100.00
54465;BME280;40374;49.480;20.016;2022-11-15T05:45:02;62409.59;;;-145.97;100.00
54465;BME280;40374;49.480;20.016;2022-11-15T05:47:51;62409.59;;;-145.97;100.00
54465;BME280;40374;49.480;20.016;2022-11-15T05:50:39;62409.59;;;-145.97;100.00
54465;BME280;40374;49.480;20.016;2022-11-15T05:53:27;62409.59;;;-145.97;100.00
54465;BME280;40374;49.480;20.016;2022-11-15T05:56:13;62409.59;;;-145.97;100.00
54465;BME280;40374;49.480;20.016;2022-11-15T05:59:00;62409.59;;;-145.97;100.00
54465;BME280;40374;49.480;20.016;2022-11-15T06:01:46;62409.59;;;-145.97;100.00
54465;BME280;40374;49.480;20.016;2022-11-15T06:04:32;62409.59;;;-145.97;100.00
54465;BME280;40374;49.480;20.016;2022-11-15T06:07:18;62409.59;;;-145.97;100.00
54465;BME280;40374;49.480;20.016;2022-11-15T06:10:05;62409.59;;;-145.97;100.00
54465;BME280;40374;49.480;20.016;2022-11-15T06:13:02;62409.59;;;-145.97;100.00
54465;BME280;40374;49.480;20.016;2022-11-15T06:15:48;62409.59;;;-145.97;100.00
54465;BME280;40374;49.480;20.016;2022-11-15T06:18:35;62409.59;;;-145.97;100.00
54465;BME280;40374;49.480;20.016;2022-11-15T06:21:22;62409.59;;;-145.97;100.00
54465;BME280;40374;49.480;20.016;2022-11-15T06:24:07;62409.59;;;-145.97;100.00
54465;BME280;40374;49.480;20.016;2022-11-15T06:26:53;62409.59;;;-145.97;100.00
54465;BME280;40374;49.480;20.016;2022-11-15T06:29:39;62409.59;;;-145.97;100.00
54465;BME280;40374;49.480;20.016;2022-11-15T06:32:26;62409.59;;;-145.97;100.00
54465;BME280;40374;49.480;20.016;2022-11-15T06:35:12;62409.59;;;-145.97;100.00
54465;BME280;40374;49.480;20.016;2022-11-15T06:38:07;62409.59;;;-145.97;100.00
54465;BME280;40374;49.480;20.016;2022-11-15T06:40:53;62409.59;;;-145.97;100.00
54465;BME280;40374;49.480;20.016;2022-11-15T06:43:40;62409.59;;;-145.97;100.00
54465;BME280;40374;49.480;20.016;2022-11-15T06:46:26;62409.59;;;-145.97;100.00
54465;BME280;40374;49.480;20.016;2022-11-15T06:49:12;62409.59;;;-145.97;100.00
54465;BME280;40374;49.480;20.016;2022-11-15T06:51:58;62409.59;;;-145.97;100.00
54465;BME280;40374;49.480;20.016;2022-11-15T06:54:45;62409.59;;;-145.97;100.00
54465;BME280;40374;49.480;20.016;2022-11-15T06:57:31;62409.59;;;-145.97;100.00
54465;BME280;40374;49.480;20.016;2022-11-15T07:00:18;62409.59;;;-145.97;100.00
54465;BME280;40374;49.480;20.016;2022-11-15T07:03:04;62409.59;;;-145.97;100.00
54465;BME280;40374;49.480;20.016;2022-11-15T07:05:52;62409.59;;;-145.97;100.00
54465;BME280;40374;49.480;20.016;2022-11-15T07:08:38;62409.59;;;-145.97;100.00
54465;BME280;40374;49.480;20.016;2022-11-15T07:11:25;62409.59;;;-145.97;100.00
54465;BME280;40374;49.480;20.016;2022-11-15T07:14:11;62409.59;;;-145.97;100.00
54465;BME280;40374;49.480;20.016;2022-11-15T07:16:57;62409.59;;;-145.97;100.00
54465;BME280;40374;49.480;20.016;2022-11-15T07:19:43;62409.59;;;-145.97;100.00
54465;BME280;40374;49.480;20.016;2022-11-15T07:22:29;62409.59;;;-145.97;100.00
54465;BME280;40374;49.480;20.016;2022-11-15T07:25:15;62409.59;;;-145.97;100.00
54465;BME280;40374;49.480;20.016;2022-11-15T07:28:03;62409.59;;;-145.97;100.00
54465;BME280;40374;49.480;20.016;2022-11-15T07:30:49;62409.59;;;-145.97;100.00
54465;BME280;40374;49.480;20.016;2022-11-15T07:33:36;62409.59;;;-145.97;100.00
54465;BME280;40374;49.480;20.016;2022-11-15T07:36:22;62409.59;;;-145.97;100.00
54465;BME280;40374;49.480;20.016;2022-11-15T07:39:09;62409.59;;;-145.97;100.00
54465;BME280;40374;49.480;20.016;2022-11-15T07:41:55;62409.59;;;-145.97;100.00
54465;BME280;40374;49.480;20.016;2022-11-15T07:45:01;62409.59;;;-145.97;100.00
54465;BME280;40374;49.480;20.016;2022-11-15T07:47:48;62409.59;;;-145.97;100.00
54465;BME280;40374;49.480;20.016;2022-11-15T07:50:35;62409.59;;;-145.97;100.00
54465;BME280;40374;49.480;20.016;2022-11-15T07:53:21;62409.59;;;-145.97;100.00
54465;BME280;40374;49.480;20.016;2022-11-15T07:56:09;62409.59;;;-145.97;100.00
54465;BME280;40374;49.480;20.016;2022-11-15T07:58:54;62409.59;;;-145.97;100.00
54465;BME280;40374;49.480;20.016;2022-11-15T08:01:41;62409.59;;;-145.97;100.00
54465;BME280;40374;49.480;20.016;2022-11-15T08:04:27;62409.59;;;-145.97;100.00
54465;BME280;40374;49.480;20.016;2022-11-15T08:07:13;62409.59;;;-145.97;100.00
54465;BME280;40374;49.480;20.016;2022-11-15T08:09:59;62409.59;;;-145.97;100.00
54465;BME280;40374;49.480;20.016;2022-11-15T08:12:47;62409.59;;;-145.97;100.00
54465;BME280;40374;49.480;20.016;2022-11-15T08:15:33;62409.59;;;-145.97;100.00
54465;BME280;40374;49.480;20.016;2022-11-15T08:48:10;95001.44;;;5.14;100.00
54465;BME280;40374;49.480;20.016;2022-11-15T08:50:57;95018.03;;;5.77;100.00
54465;BME280;40374;49.480;20.016;2022-11-15T08:53:43;95020.03;;;6.30;100.00
54465;BME280;40374;49.480;20.016;2022-11-15T08:56:29;95012.56;;;6.60;100.00
54465;BME280;40374;49.480;20.016;2022-11-15T08:59:15;95009.09;;;6.91;100.00
54465;BME280;40374;49.480;20.016;2022-11-15T09:02:01;95016.81;;;7.63;100.00
54465;BME280;40374;49.480;20.016;2022-11-15T09:04:47;94999.63;;;8.22;100.00
54465;BME280;40374;49.480;20.016;2022-11-15T09:07:34;94990.47;;;8.07;100.00
54465;BME280;40374;49.480;20.016;2022-11-15T09:10:19;94988.06;;;7.05;100.00
54465;BME280;40374;49.480;20.016;2022-11-15T09:13:05;95008.47;;;6.25;100.00
54465;BME280;40374;49.480;20.016;2022-11-15T09:15:51;95003.63;;;5.56;100.00
54465;BME280;40374;49.480;20.016;2022-11-15T09:18:37;95009.59;;;5.24;100.00
54465;BME280;40374;49.480;20.016;2022-11-15T09:21:23;94996.38;;;4.95;100.00
54465;BME280;40374;49.480;20.016;2022-11-15T09:24:09;94999.19;;;5.05;100.00
54465;BME280;40374;49.480;20.016;2022-11-15T09:26:55;94975.94;;;5.01;100.00
54465;BME280;40374;49.480;20.016;2022-11-15T09:29:41;94999.59;;;4.80;100.00
54465;BME280;40374;49.480;20.016;2022-11-15T09:32:30;94996.72;;;4.65;100.00
54465;BME280;40374;49.480;20.016;2022-11-15T09:35:23;94998.88;;;4.68;100.00
54465;BME280;40374;49.480;20.016;2022-11-15T09:38:09;94985.09;;;4.88;100.00
54465;BME280;40374;49.480;20.016;2022-11-15T09:50:06;94981.53;;;5.38;100.00
54465;BME280;40374;49.480;20.016;2022-11-15T09:52:37;94968.38;;;5.54;100.00
54465;BME280;40374;49.480;20.016;2022-11-15T09:55:09;94965.66;;;5.70;100.00
54465;BME280;40374;49.480;20.016;2022-11-15T10:00:42;94958.13;;;5.89;100.00
54465;BME280;40374;49.480;20.016;2022-11-15T10:03:17;94948.66;;;5.77;100.00
54465;BME280;40374;49.480;20.016;2022-11-15T10:05:49;94945.34;;;5.92;100.00
54465;BME280;40374;49.480;20.016;2022-11-15T10:11:10;94930.88;;;6.09;100.00
54465;BME280;40374;49.480;20.016;2022-11-15T10:14:05;94912.41;;;6.30;100.00
54465;BME280;40374;49.480;20.016;2022-11-15T10:27:35;94884.41;;;8.01;100.00
54465;BME280;40374;49.480;20.016;2022-11-15T10:30:06;94879.59;;;7.98;100.00
54465;BME280;40374;49.480;20.016;2022-11-15T10:32:37;94879.03;;;8.01;100.00
54465;BME280;40374;49.480;20.016;2022-11-15T10:35:25;94879.56;;;7.88;100.00
54465;BME280;40374;49.480;20.016;2022-11-15T10:38:08;94892.28;;;7.50;100.00
54465;BME280;40374;49.480;20.016;2022-11-15T10:40:37;94872.38;;;7.20;100.00
54465;BME280;40374;49.480;20.016;2022-11-15T10:43:19;94887.22;;;7.01;100.00
54465;BME280;40374;49.480;20.016;2022-11-15T10:45:46;94879.13;;;6.85;100.00
54465;BME280;40374;49.480;20.016;2022-11-15T10:50:46;94873.84;;;6.96;100.00
54465;BME280;40374;49.480;20.016;2022-11-15T10:53:42;94867.72;;;7.05;100.00
54465;BME280;40374;49.480;20.016;2022-11-15T10:56:13;94871.25;;;7.11;100.00
54465;BME280;40374;49.480;20.016;2022-11-15T10:58:45;94845.81;;;7.08;100.00
54465;BME280;40374;49.480;20.016;2022-11-15T11:01:20;94862.78;;;7.29;100.00
54465;BME280;40374;49.480;20.016;2022-11-15T11:04:04;94852.69;;;7.57;100.00
54465;BME280;40374;49.480;20.016;2022-11-15T11:06:56;94857.06;;;7.99;100.00
54465;BME280;40374;49.480;20.016;2022-11-15T11:09:34;94847.19;;;8.25;100.00
54465;BME280;40374;49.480;20.016;2022-11-15T11:12:08;94839.13;;;8.36;100.00
54465;BME280;40374;49.480;20.016;2022-11-15T11:14:38;94811.31;;;8.47;100.00
54465;BME280;40374;49.480;20.016;2022-11-15T11:33:33;94810.84;;;9.20;100.00
54465;BME280;40374;49.480;20.016;2022-11-15T11:36:21;94797.94;;;9.32;100.00
54465;BME280;40374;49.480;20.016;2022-11-15T11:39:06;94790.06;;;9.46;100.00
54465;BME280;40374;49.480;20.016;2022-11-15T11:41:52;94784.19;;;9.39;100.00
54465;BME280;40374;49.480;20.016;2022-11-15T11:47:22;94782.41;;;9.24;100.00
54465;BME280;40374;49.480;20.016;2022-11-15T11:49:54;94778.69;;;9.10;100.00
54465;BME280;40374;49.480;20.016;2022-11-15T11:52:57;94781.16;;;8.96;100.00
54465;BME280;40374;49.480;20.016;2022-11-15T11:55:57;94785.97;;;8.99;100.00
54465;BME280;40374;49.480;20.016;2022-11-15T12:01:42;94762.38;;;9.01;100.00
54465;BME280;40374;49.480;20.016;2022-11-15T12:04:27;94763.69;;;9.04;100.00
54465;BME280;40374;49.480;20.016;2022-11-15T12:07:00;94750.03;;;9.00;100.00
54465;BME280;40374;49.480;20.016;2022-11-15T12:17:40;94757.94;;;8.35;100.00
54465;BME280;40374;49.480;20.016;2022-11-15T12:20:22;94756.91;;;8.26;100.00
54465;BME280;40374;49.480;20.016;2022-11-15T12:23:06;94757.44;;;8.18;100.00
54465;BME280;40374;49.480;20.016;2022-11-15T12:30:20;94736.56;;;7.84;100.00
54465;BME280;40374;49.480;20.016;2022-11-15T12:32:58;94738.72;;;7.92;100.00
54465;BME280;40374;49.480;20.016;2022-11-15T12:35:42;94731.19;;;7.99;100.00
54465;BME280;40374;49.480;20.016;2022-11-15T12:38:12;94724.25;;;7.98;100.00
54465;BME280;40374;49.480;20.016;2022-11-15T12:41:21;94730.38;;;7.93;100.00
54465;BME280;40374;49.480;20.016;2022-11-15T12:43:50;94734.69;;;7.74;100.00
54465;BME280;40374;49.480;20.016;2022-11-15T12:59:54;94702.28;;;7.91;100.00
54465;BME280;40374;49.480;20.016;2022-11-15T13:02:30;94696.66;;;8.03;100.00
54465;BME280;40374;49.480;20.016;2022-11-15T13:22:49;94672.50;;;8.18;100.00
54465;BME280;40374;49.480;20.016;2022-11-15T13:28:00;94673.34;;;8.13;100.00
54465;BME280;40374;49.480;20.016;2022-11-15T13:30:34;94655.97;;;7.85;100.00
54465;BME280;40374;49.480;20.016;2022-11-15T13:33:08;94644.47;;;7.80;100.00
54465;BME280;40374;49.480;20.016;2022-11-15T13:35:42;94671.78;;;7.92;100.00
54465;BME280;40374;49.480;20.016;2022-11-15T13:38:29;94661.06;;;7.82;100.00
54465;BME280;40374;49.480;20.016;2022-11-15T13:40:59;94656.25;;;7.68;100.00
54465;BME280;40374;49.480;20.016;2022-11-15T13:43:34;94657.06;;;7.79;100.00
54465;BME280;40374;49.480;20.016;2022-11-15T13:46:15;94659.22;;;7.77;100.00
54465;BME280;40374;49.480;20.016;2022-11-15T13:48:45;94659.44;;;7.81;100.00
54465;BME280;40374;49.480;20.016;2022-11-15T13:51:19;94654.66;;;7.78;100.00
54465;BME280;40374;49.480;20.016;2022-11-15T13:53:56;94648.47;;;7.82;100.00
54465;BME280;40374;49.480;20.016;2022-11-15T13:56:26;94653.03;;;7.82;100.00
54465;BME280;40374;49.480;20.016;2022-11-15T13:58:55;94651.44;;;7.76;100.00
54465;BME280;40374;49.480;20.016;2022-11-15T14:01:30;94648.50;;;7.67;100.00
54465;BME280;40374;49.480;20.016;2022-11-15T14:04:00;94648.19;;;7.79;100.00
54465;BME280;40374;49.480;20.016;2022-11-15T14:06:31;94654.38;;;7.74;100.00
54465;BME280;40374;49.480;20.016;2022-11-15T14:11:50;94645.00;;;7.71;100.00
54465;BME280;40374;49.480;20.016;2022-11-15T14:14:21;94642.31;;;7.66;100.00
54465;BME280;40374;49.480;20.016;2022-11-15T14:16:58;94637.53;;;7.63;100.00
54465;BME280;40374;49.480;20.016;2022-11-15T14:24:42;94614.53;;;7.52;100.00
54465;BME280;40374;49.480;20.016;2022-11-15T14:27:27;94627.38;;;7.60;100.00
54465;BME280;40374;49.480;20.016;2022-11-15T14:29:56;94628.16;;;7.50;100.00
54465;BME280;40374;49.480;20.016;2022-11-15T14:32:26;94612.91;;;7.51;100.00
54465;BME280;40374;49.480;20.016;2022-11-15T14:35:01;94620.66;;;7.52;100.00
54465;BME280;40374;49.480;20.016;2022-11-15T14:37:31;94621.72;;;7.51;100.00
54465;BME280;40374;49.480;20.016;2022-11-15T14:40:03;94610.25;;;7.46;100.00
54465;BME280;40374;49.480;20.016;2022-11-15T14:42:31;94600.34;;;7.36;100.00
54465;BME280;40374;49.480;20.016;2022-11-15T14:44:58;94616.94;;;7.38;100.00
54465;BME280;40374;49.480;20.016;2022-11-15T14:47:26;94620.41;;;7.34;100.00
54465;BME280;40374;49.480;20.016;2022-11-15T14:49:53;94614.53;;;7.31;100.00
54465;BME280;40374;49.480;20.016;2022-11-15T14:52:29;94615.59;;;7.36;100.00
54465;BME280;40374;49.480;20.016;2022-11-15T14:54:59;94615.03;;;7.28;100.00
54465;BME280;40374;49.480;20.016;2022-11-15T14:57:30;94600.06;;;7.17;100.00
54465;BME280;40374;49.480;20.016;2022-11-15T14:59:57;94608.63;;;7.14;100.00
54465;BME280;40374;49.480;20.016;2022-11-15T15:02:39;94608.91;;;7.13;100.00
54465;BME280;40374;49.480;20.016;2022-11-15T15:05:32;94598.47;;;7.16;100.00
54465;BME280;40374;49.480;20.016;2022-11-15T15:08:00;94573.31;;;6.91;100.00
54465;BME280;40374;49.480;20.016;2022-11-15T15:10:32;94599.53;;;7.10;100.00
54465;BME280;40374;49.480;20.016;2022-11-15T15:13:20;94592.59;;;7.04;100.00
54465;BME280;40374;49.480;20.016;2022-11-15T15:15:50;94592.84;;;6.97;100.00
54465;BME280;40374;49.480;20.016;2022-11-15T15:18:18;94587.50;;;6.97;100.00
54465;BME280;40374;49.480;20.016;2022-11-15T15:20:54;94576.25;;;6.90;100.00
54465;BME280;40374;49.480;20.016;2022-11-15T15:23:23;94586.44;;;6.93;100.00
54465;BME280;40374;49.480;20.016;2022-11-15T15:25:52;94578.66;;;6.86;100.00
54465;BME280;40374;49.480;20.016;2022-11-15T15:28:20;94578.09;;;6.84;100.00
54465;BME280;40374;49.480;20.016;2022-11-15T15:30:47;94589.91;;;6.94;100.00
54465;BME280;40374;49.480;20.016;2022-11-15T15:33:16;94581.88;;;6.83;100.00
54465;BME280;40374;49.480;20.016;2022-11-15T15:35:44;94585.34;;;6.84;100.00
54465;BME280;40374;49.480;20.016;2022-11-15T15:38:12;94587.75;;;6.85;100.00
54465;BME280;40374;49.480;20.016;2022-11-15T15:40:39;94581.88;;;6.83;100.00
54465;BME280;40374;49.480;20.016;2022-11-15T15:43:07;94588.81;;;6.74;100.00
54465;BME280;40374;49.480;20.016;2022-11-15T15:45:39;94571.94;;;6.74;100.00
54465;BME280;40374;49.480;20.016;2022-11-15T15:48:15;94581.84;;;6.78;100.00
54465;BME280;40374;49.480;20.016;2022-11-15T15:50:43;94580.78;;;6.84;100.00
54465;BME280;40374;49.480;20.016;2022-11-15T15:53:12;94584.53;;;6.83;100.00
54465;BME280;40374;49.480;20.016;2022-11-15T15:55:40;94575.44;;;6.84;100.00
54465;BME280;40374;49.480;20.016;2022-11-15T15:58:08;94572.50;;;6.81;100.00
54465;BME280;40374;49.480;20.016;2022-11-15T16:00:35;94561.81;;;6.81;100.00
54465;BME280;40374;49.480;20.016;2022-11-15T16:03:04;94568.25;;;6.85;100.00
54465;BME280;40374;49.480;20.016;2022-11-15T16:05:31;94548.16;;;6.82;100.00
54465;BME280;40374;49.480;20.016;2022-11-15T16:07:59;94554.06;;;6.79;100.00
54465;BME280;40374;49.480;20.016;2022-11-15T16:10:28;94561.53;;;6.82;100.00
54465;BME280;40374;49.480;20.016;2022-11-15T16:12:57;94561.25;;;6.74;100.00
54465;BME280;40374;49.480;20.016;2022-11-15T16:15:30;94567.41;;;6.79;100.00
54465;BME280;40374;49.480;20.016;2022-11-15T16:18:00;94565.81;;;6.78;100.00
54465;BME280;40374;49.480;20.016;2022-11-15T16:20:43;94555.13;;;6.78;100.00
54465;BME280;40374;49.480;20.016;2022-11-15T16:23:16;94558.88;;;6.72;100.00
54465;BME280;40374;49.480;20.016;2022-11-15T16:25:50;94559.94;;;6.76;100.00
54465;BME280;40374;49.480;20.016;2022-11-15T16:28:29;94544.94;;;6.60;100.00
54465;BME280;40374;49.480;20.016;2022-11-15T16:31:10;94554.31;;;6.73;100.00
54465;BME280;40374;49.480;20.016;2022-11-15T16:33:39;94555.66;;;6.70;100.00
54465;BME280;40374;49.480;20.016;2022-11-15T16:36:22;94552.69;;;6.71;100.00
54465;BME280;40374;49.480;20.016;2022-11-15T16:38:57;94546.03;;;6.64;100.00
54465;BME280;40374;49.480;20.016;2022-11-15T16:41:25;94555.09;;;6.63;100.00